Time;durP1;ratioP1;P1;durP2;ratioP2;P2;SDS_P1;SDS_P2;PMS_P1;PMS_P2;Temp;Humidity;BMP_temperature;BMP_pressure;BME280_temperature;BME280_humidity;BME280_pressure;Samples;Min_cycle;Max_cycle;Signal;HPM_P1;HPM_P2
2023/08/27 00:01:17;;;;;;;1.80;0.20;;;;;;;14.89;80.16;100557.28;5009808;28;20042;-46
2023/08/27 00:03:45;;;;;;;1.85;0.40;;;;;;;14.88;80.09;100564.03;5008948;28;20052;-45
2023/08/27 00:06:12;;;;;;;1.70;0.30;;;;;;;14.86;80.04;100571.97;5012513;28;20054;-45
2023/08/27 00:08:39;;;;;;;0.22;0.17;;;;;;;14.84;79.94;100567.94;5012406;28;20062;-45
2023/08/27 00:11:06;;;;;;;4.45;0.40;;;;;;;14.83;80.15;100564.34;5012330;28;20518;-47
2023/08/27 00:13:33;;;;;;;0.73;0.40;;;;;;;14.83;80.20;100561.56;5012316;28;20046;-45
2023/08/27 00:16:00;;;;;;;3.90;1.23;;;;;;;14.80;80.31;100559.53;5011206;28;20808;-45
2023/08/27 00:18:27;;;;;;;1.45;0.28;;;;;;;14.77;80.18;100554.75;5010092;28;20498;-45
2023/08/27 00:20:54;;;;;;;2.40;0.40;;;;;;;14.74;80.30;100549.91;5012288;28;20057;-45
2023/08/27 00:23:20;;;;;;;2.28;0.40;;;;;;;14.72;80.34;100555.03;5011942;28;20076;-45
2023/08/27 00:25:47;;;;;;;0.40;0.35;;;;;;;14.71;80.45;100542.31;5011655;28;20056;-45
2023/08/27 00:28:14;;;;;;;0.88;0.20;;;;;;;14.71;80.26;100545.09;5011118;28;20412;-46
2023/08/27 00:30:43;;;;;;;0.60;0.20;;;;;;;14.70;80.18;100537.09;5008104;28;20069;-45
2023/08/27 00:33:10;;;;;;;0.73;0.30;;;;;;;14.70;80.00;100535.13;5009575;28;20065;-45
2023/08/27 00:35:38;;;;;;;1.75;0.50;;;;;;;14.67;79.78;100535.88;5011885;28;20064;-45
2023/08/27 00:38:06;;;;;;;0.80;0.80;;;;;;;14.64;79.68;100531.03;5011367;28;20045;-44
2023/08/27 00:40:33;;;;;;;0.60;0.28;;;;;;;14.63;79.81;100546.19;5011989;28;20140;-45
2023/08/27 00:43:01;;;;;;;0.82;0.30;;;;;;;14.61;79.99;100543.75;5010293;28;20046;-45
2023/08/27 00:45:30;;;;;;;2.30;0.30;;;;;;;14.64;79.94;100547.75;5007793;28;20145;-45
2023/08/27 00:47:57;;;;;;;0.40;0.40;;;;;;;14.69;79.96;100544.69;5010438;28;20058;-48
2023/08/27 00:50:25;;;;;;;2.83;0.63;;;;;;;14.70;79.93;100551.03;5010269;28;20054;-46
2023/08/27 00:52:53;;;;;;;1.92;0.32;;;;;;;14.67;79.88;100547.00;5012113;28;20045;-46
2023/08/27 00:55:21;;;;;;;1.58;0.40;;;;;;;14.67;80.06;100541.44;5009322;28;20164;-46
2023/08/27 00:57:49;;;;;;;1.75;0.35;;;;;;;14.68;80.32;100548.63;5010914;28;20148;-45
2023/08/27 01:00:17;;;;;;;2.95;0.30;;;;;;;14.66;80.01;100551.00;5008049;28;20054;-46
2023/08/27 01:02:46;;;;;;;2.60;0.40;;;;;;;14.65;80.07;100549.38;5008418;28;20504;-46
2023/08/27 01:05:14;;;;;;;3.65;0.73;;;;;;;14.64;79.94;100547.75;5009616;28;20056;-45
2023/08/27 01:07:46;;;;;;;3.50;0.43;;;;;;;14.64;79.88;100548.56;5006798;28;20538;-47
2023/08/27 01:10:22;;;;;;;1.13;0.38;;;;;;;14.56;79.97;100549.66;5009287;28;20074;-45
2023/08/27 01:13:12;;;;;;;0.32;0.13;;;;;;;14.54;79.74;100537.28;4991997;28;20132;-45
2023/08/27 01:15:42;;;;;;;1.25;0.40;;;;;;;14.54;79.54;100538.09;4999929;28;20131;-46
2023/08/27 01:18:11;;;;;;;0.93;0.82;;;;;;;14.54;79.25;100542.84;5011049;28;20140;-45
2023/08/27 01:20:38;;;;;;;1.83;0.30;;;;;;;14.47;79.18;100538.00;5010266;28;20210;-47
2023/08/27 01:23:04;;;;;;;2.17;0.40;;;;;;;14.42;79.07;100534.75;5011366;28;20499;-45
2023/08/27 01:25:43;;;;;;;2.50;0.95;;;;;;;14.42;79.35;100529.16;4993526;28;20053;-45
2023/08/27 01:28:32;;;;;;;5.18;0.50;;;;;;;14.43;79.18;100533.53;5013262;28;20038;-45
2023/08/27 01:31:17;;;;;;;3.95;0.40;;;;;;;14.44;79.31;100537.94;5011228;28;20442;-45
2023/08/27 01:33:46;;;;;;;4.72;1.10;;;;;;;14.42;79.00;100541.13;5011314;28;20543;-45
2023/08/27 01:36:14;;;;;;;2.35;0.43;;;;;;;14.42;78.96;100534.75;5009545;28;20506;-45
2023/08/27 01:38:41;;;;;;;1.15;0.22;;;;;;;14.42;78.87;100535.53;5011594;28;20058;-46
2023/08/27 01:41:08;;;;;;;3.80;0.70;;;;;;;14.41;78.91;100535.91;5011103;28;20484;-45
2023/08/27 01:43:35;;;;;;;1.80;0.50;;;;;;;14.42;78.72;100529.16;5019223;28;20470;-46
2023/08/27 01:46:03;;;;;;;1.50;0.65;;;;;;;14.40;78.62;100520.38;5011173;28;20045;-45
2023/08/27 01:48:30;;;;;;;1.40;0.55;;;;;;;14.36;78.49;100514.75;5011257;28;20038;-47
2023/08/27 01:50:57;;;;;;;1.13;0.43;;;;;;;14.39;78.54;100513.19;5010879;28;20077;-45
2023/08/27 01:53:24;;;;;;;3.90;0.93;;;;;;;14.33;78.61;100529.44;4977419;28;20042;-46
2023/08/27 01:55:51;;;;;;;0.63;0.30;;;;;;;14.29;78.55;100519.41;4993201;28;20097;-47
2023/08/27 01:58:20;;;;;;;2.65;0.47;;;;;;;14.24;78.60;100523.31;4992522;28;20085;-45
2023/08/27 02:00:49;;;;;;;1.50;0.30;;;;;;;14.19;78.58;100523.59;5009185;28;20185;-45
2023/08/27 02:03:16;;;;;;;2.50;0.50;;;;;;;14.17;78.56;100533.53;5009756;28;20060;-45
2023/08/27 02:05:47;;;;;;;3.85;0.55;;;;;;;14.13;78.60;100547.41;5008859;28;20504;-45
2023/08/27 02:08:14;;;;;;;2.50;0.88;;;;;;;14.04;78.42;100556.00;5009869;28;20046;-46
2023/08/27 02:10:41;;;;;;;3.47;0.60;;;;;;;13.98;78.47;100554.72;5010008;28;20706;-45
2023/08/27 02:13:09;;;;;;;2.15;0.60;;;;;;;14.00;78.70;100555.13;5007768;28;20050;-45
2023/08/27 02:15:36;;;;;;;5.30;0.80;;;;;;;14.02;78.63;100563.94;5006305;28;20416;-45
2023/08/27 02:18:03;;;;;;;4.25;0.88;;;;;;;13.98;78.71;100554.72;5009521;28;20037;-48
2023/08/27 02:20:30;;;;;;;5.80;0.88;;;;;;;13.98;78.71;100559.47;5009639;28;20042;-46
2023/08/27 02:22:58;;;;;;;2.35;0.70;;;;;;;13.96;78.70;100559.84;4992964;28;20054;-45
2023/08/27 02:25:26;;;;;;;3.53;0.90;;;;;;;13.99;78.80;100556.31;4991671;28;20049;-45
2023/08/27 02:27:53;;;;;;;4.28;1.63;;;;;;;13.98;78.80;100554.72;5012234;28;20053;-45
2023/08/27 02:30:21;;;;;;;2.78;0.70;;;;;;;13.93;79.03;100549.44;5011509;28;20485;-45
2023/08/27 02:32:48;;;;;;;3.75;0.90;;;;;;;13.89;79.07;100551.38;5009687;28;20096;-54
2023/08/27 02:35:15;;;;;;;3.33;0.70;;;;;;;13.89;79.18;100545.81;4994433;28;20042;-45
2023/08/27 02:37:42;;;;;;;2.25;0.47;;;;;;;13.85;78.97;100544.13;5013515;28;20038;-46
2023/08/27 02:40:09;;;;;;;7.68;0.70;;;;;;;13.84;79.15;100535.00;5008388;28;20499;-45
2023/08/27 02:42:37;;;;;;;3.05;0.60;;;;;;;13.81;79.40;100532.97;5005863;28;20049;-45
2023/08/27 02:45:05;;;;;;;2.78;0.60;;;;;;;13.77;79.40;100537.66;5008063;28;20042;-48
2023/08/27 02:47:31;;;;;;;3.55;1.30;;;;;;;13.77;79.64;100531.28;5013032;28;20053;-46
2023/08/27 02:49:58;;;;;;;2.42;0.55;;;;;;;13.75;79.75;100531.66;5012928;28;20073;-45
2023/08/27 02:52:25;;;;;;;1.65;0.50;;;;;;;13.75;79.77;100534.44;5012604;28;20049;-45
2023/08/27 02:54:52;;;;;;;2.85;0.60;;;;;;;13.75;79.87;100528.06;5013200;28;20046;-45
2023/08/27 02:57:19;;;;;;;4.90;1.10;;;;;;;13.77;79.96;100534.88;5012858;28;20403;-45
2023/08/27 02:59:46;;;;;;;3.67;0.60;;;;;;;13.80;80.11;100531.34;5010240;28;20045;-45
2023/08/27 03:02:13;;;;;;;2.22;0.88;;;;;;;13.82;80.23;100537.34;5082191;23;20058;-44
2023/08/27 03:04:43;;;;;;;6.97;0.70;;;;;;;13.81;80.31;100543.28;4993076;28;20058;-44
2023/08/27 03:07:10;;;;;;;4.68;0.70;;;;;;;13.83;80.62;100535.38;4992093;28;20125;-46
2023/08/27 03:09:37;;;;;;;2.80;0.60;;;;;;;13.81;80.54;100537.72;4989195;28;20519;-47
2023/08/27 03:12:04;;;;;;;1.35;0.70;;;;;;;13.73;80.81;100542.38;4993341;28;20053;-45
2023/08/27 03:14:31;;;;;;;2.72;0.75;;;;;;;13.70;81.32;100554.22;4992327;28;20136;-44
2023/08/27 03:16:58;;;;;;;2.85;1.25;;;;;;;13.70;81.38;100545.06;4991791;28;20058;-44
2023/08/27 03:19:24;;;;;;;2.97;0.70;;;;;;;13.73;81.54;100545.16;4993425;28;20562;-44
2023/08/27 03:21:51;;;;;;;6.05;0.80;;;;;;;13.74;81.57;100546.75;4993217;28;20407;-45
2023/08/27 03:24:18;;;;;;;4.97;1.02;;;;;;;13.72;81.57;100535.19;4991373;28;20060;-44
2023/08/27 03:26:45;;;;;;;4.43;0.73;;;;;;;13.68;82.08;100528.78;4991490;28;20495;-44
2023/08/27 03:29:13;;;;;;;6.28;0.95;;;;;;;13.69;82.04;100527.56;4995430;28;20054;-44
2023/08/27 03:31:40;;;;;;;4.50;0.77;;;;;;;13.70;82.50;100529.19;4992760;28;20080;-43
2023/08/27 03:34:08;;;;;;;3.42;1.13;;;;;;;13.67;82.53;100538.28;4995925;28;20085;-45
2023/08/27 03:36:34;;;;;;;5.45;2.25;;;;;;;13.62;82.86;100530.25;4992514;28;20039;-44
2023/08/27 03:39:01;;;;;;;4.28;0.90;;;;;;;13.63;82.87;100536.63;4978313;28;20050;-45
2023/08/27 03:41:28;;;;;;;3.40;0.90;;;;;;;13.61;83.10;100539.75;4990830;28;20050;-44
2023/08/27 03:43:55;;;;;;;5.90;0.75;;;;;;;13.62;83.32;100538.59;4991273;28;20081;-44
2023/08/27 03:46:22;;;;;;;10.45;2.95;;;;;;;13.64;83.56;100543.78;4990688;28;20057;-45
2023/08/27 03:48:49;;;;;;;5.03;0.98;;;;;;;13.63;83.49;100543.00;4995847;28;20083;-45
2023/08/27 03:51:16;;;;;;;6.82;1.08;;;;;;;13.64;83.61;100532.63;4993000;28;20038;-44
2023/08/27 03:53:43;;;;;;;3.95;1.05;;;;;;;13.65;83.73;100537.84;4990471;28;20046;-48
2023/08/27 03:56:10;;;;;;;5.63;0.90;;;;;;;13.65;83.92;100529.50;4992630;28;20096;-43
2023/08/27 03:58:37;;;;;;;4.80;0.80;;;;;;;13.64;83.95;100532.63;4992501;28;20696;-45
2023/08/27 04:01:03;;;;;;;4.75;0.90;;;;;;;13.61;84.21;100528.63;4992462;28;20077;-45
2023/08/27 04:03:30;;;;;;;3.08;0.75;;;;;;;13.64;84.12;100532.63;4994970;28;20054;-45
2023/08/27 04:05:57;;;;;;;5.60;0.68;;;;;;;13.61;84.36;100528.63;4990698;28;20138;-45
2023/08/27 04:08:24;;;;;;;2.30;0.63;;;;;;;13.59;84.22;100525.41;4990393;28;20046;-44
2023/08/27 04:10:52;;;;;;;3.70;1.15;;;;;;;13.61;84.45;100522.28;4993193;28;20389;-44
2023/08/27 04:13:20;;;;;;;4.05;0.65;;;;;;;13.60;84.57;100521.47;4989280;28;20046;-43
2023/08/27 04:15:57;;;;;;;2.45;0.70;;;;;;;13.58;84.73;100525.81;4991545;28;20050;-46
2023/08/27 04:18:24;;;;;;;2.45;0.47;;;;;;;13.56;84.64;100526.16;4990347;28;20089;-44
2023/08/27 04:20:51;;;;;;;4.22;0.75;;;;;;;13.57;84.92;100527.78;4991563;28;20050;-45
2023/08/27 04:23:18;;;;;;;7.80;1.27;;;;;;;13.60;84.95;100531.78;4992151;28;20042;-44
2023/08/27 04:25:45;;;;;;;4.90;0.80;;;;;;;13.62;84.94;100521.91;4991933;28;20411;-44
2023/08/27 04:28:13;;;;;;;2.83;0.60;;;;;;;13.64;84.90;100527.06;4990300;28;20043;-44
2023/08/27 04:30:40;;;;;;;3.47;1.02;;;;;;;13.60;84.91;100518.69;4974264;28;20054;-44
2023/08/27 04:33:07;;;;;;;2.05;0.50;;;;;;;13.60;85.22;100520.66;4990169;28;20058;-44
2023/08/27 04:35:34;;;;;;;2.72;0.80;;;;;;;13.60;85.02;100515.09;4999466;28;20459;-44
2023/08/27 04:38:01;;;;;;;3.28;0.60;;;;;;;13.60;85.12;100520.66;4990303;28;20053;-45
2023/08/27 04:40:28;;;;;;;2.45;0.73;;;;;;;13.61;85.23;100517.50;4991972;28;20137;-46
2023/08/27 04:42:58;;;;;;;1.73;0.88;;;;;;;13.62;85.26;100513.56;4990465;28;20046;-44
2023/08/27 04:45:25;;;;;;;3.85;0.68;;;;;;;13.62;85.20;100507.19;4992216;28;20140;-43
2023/08/27 04:47:52;;;;;;;3.60;1.95;;;;;;;13.57;85.16;100516.66;4989792;28;20105;-45
2023/08/27 04:50:19;;;;;;;2.85;0.50;;;;;;;13.59;85.24;100513.47;4990634;28;20049;-45
2023/08/27 04:52:46;;;;;;;2.33;0.30;;;;;;;13.58;85.35;100511.91;4992220;28;20054;-47
2023/08/27 04:55:13;;;;;;;2.90;0.60;;;;;;;13.62;85.37;100515.53;4991008;28;20129;-43
2023/08/27 04:57:39;;;;;;;1.73;0.60;;;;;;;13.58;85.37;100521.00;4992020;28;20038;-43
2023/08/27 05:00:08;;;;;;;1.13;0.45;;;;;;;13.52;85.49;100514.19;4992149;28;20050;-47
2023/08/27 05:02:36;;;;;;;7.35;1.00;;;;;;;13.48;85.71;100510.50;4979383;28;20137;-45
2023/08/27 05:05:03;;;;;;;2.83;0.70;;;;;;;13.43;85.95;100510.81;4991653;28;20104;-44
2023/08/27 05:07:30;;;;;;;1.40;0.50;;;;;;;13.43;85.79;100510.81;4991776;28;20141;-44
2023/08/27 05:10:00;;;;;;;0.70;0.70;;;;;;;13.40;86.15;100520.72;4991967;28;20176;-45
2023/08/27 05:12:27;;;;;;;1.17;0.50;;;;;;;13.40;86.05;100519.91;4991737;28;20042;-45
2023/08/27 05:14:53;;;;;;;4.28;0.68;;;;;;;13.39;86.19;100523.88;4991603;28;20405;-45
2023/08/27 05:17:20;;;;;;;1.55;0.40;;;;;;;13.38;86.20;100519.47;4990551;28;20411;-44
2023/08/27 05:19:48;;;;;;;0.73;0.52;;;;;;;13.39;86.16;100510.78;4992937;28;20134;-43
2023/08/27 05:22:15;;;;;;;2.85;0.50;;;;;;;13.43;86.16;100521.94;4989533;28;20134;-48
2023/08/27 05:24:42;;;;;;;4.03;0.93;;;;;;;13.46;86.16;100524.00;4989959;28;20046;-44
2023/08/27 05:27:09;;;;;;;2.05;0.75;;;;;;;13.46;86.10;100523.19;4989694;28;20058;-47
2023/08/27 05:29:35;;;;;;;0.80;0.40;;;;;;;13.46;86.33;100521.22;4990333;28;20515;-44
2023/08/27 05:32:03;;;;;;;3.15;0.50;;;;;;;13.40;86.26;100517.94;4991173;28;20042;-43
2023/08/27 05:34:29;;;;;;;3.50;0.50;;;;;;;13.34;86.35;100516.63;4991685;28;20058;-44
2023/08/27 05:36:57;;;;;;;1.98;0.63;;;;;;;13.32;86.30;100509.81;4992658;28;20062;-43
2023/08/27 05:39:24;;;;;;;3.28;0.40;;;;;;;13.31;86.64;100513.78;4990882;28;20065;-44
2023/08/27 05:41:51;;;;;;;1.83;0.60;;;;;;;13.29;86.75;100505.81;4988325;28;20050;-44
2023/08/27 05:44:18;;;;;;;1.92;0.30;;;;;;;13.28;86.85;100515.34;4987530;28;20069;-44
2023/08/27 05:46:45;;;;;;;1.88;0.43;;;;;;;13.29;86.61;100493.91;4990041;28;20500;-46
2023/08/27 05:49:12;;;;;;;1.63;0.57;;;;;;;13.28;86.88;100504.22;5000063;28;20561;-44
2023/08/27 05:51:39;;;;;;;3.17;0.57;;;;;;;13.24;87.09;100491.41;4990793;28;20050;-46
2023/08/27 05:54:06;;;;;;;2.35;0.40;;;;;;;13.25;87.06;100501.34;4990941;28;20042;-49
2023/08/27 05:56:33;;;;;;;2.78;0.50;;;;;;;13.26;87.09;100494.63;4990133;28;20148;-45
2023/08/27 05:59:00;;;;;;;3.47;1.60;;;;;;;13.28;87.15;100500.63;4991495;28;20480;-43
2023/08/27 06:01:27;;;;;;;3.22;0.45;;;;;;;13.29;87.22;100493.91;4993992;28;20046;-45
2023/08/27 06:03:55;;;;;;;11.50;1.98;;;;;;;13.30;87.19;100495.50;4995405;28;20038;-45
2023/08/27 06:06:22;;;;;;;4.03;0.80;;;;;;;13.32;87.57;100493.13;4995871;28;20038;-44
2023/08/27 06:08:49;;;;;;;6.35;0.68;;;;;;;13.33;87.21;100490.00;4994962;28;20133;-45
2023/08/27 06:11:16;;;;;;;2.05;0.88;;;;;;;13.32;87.30;100499.50;4992916;28;20045;-46
2023/08/27 06:13:43;;;;;;;3.60;0.57;;;;;;;13.33;87.51;100484.44;4991914;28;20050;-44
2023/08/27 06:16:10;;;;;;;2.95;0.63;;;;;;;13.36;87.55;100494.03;4994197;28;20042;-44
2023/08/27 06:18:37;;;;;;;2.78;0.60;;;;;;;13.36;87.75;100494.03;4993945;28;20120;-49
2023/08/27 06:21:04;;;;;;;4.22;0.95;;;;;;;13.36;87.68;100505.94;4990009;28;20073;-47
2023/08/27 06:23:31;;;;;;;5.72;0.90;;;;;;;13.41;87.66;100490.94;4995712;28;20511;-44
2023/08/27 06:26:04;;;;;;;6.65;0.77;;;;;;;13.42;87.84;100500.88;4993532;28;20046;-45
2023/08/27 06:28:31;;;;;;;3.58;0.68;;;;;;;13.43;87.87;100499.69;4985185;28;20134;-43
2023/08/27 06:30:59;;;;;;;3.58;0.85;;;;;;;13.42;87.90;100507.22;4993668;28;20105;-44
2023/08/27 06:33:26;;;;;;;0.73;0.70;;;;;;;13.42;88.14;100498.88;4988094;28;20058;-44
2023/08/27 06:35:53;;;;;;;3.88;0.73;;;;;;;13.45;88.16;100497.34;4992528;28;20047;-47
2023/08/27 06:38:20;;;;;;;3.15;1.02;;;;;;;13.45;88.23;100497.34;4997640;28;20038;-44
2023/08/27 06:40:47;;;;;;;2.42;1.25;;;;;;;13.45;88.21;100499.34;4991685;28;20050;-44
2023/08/27 06:43:14;;;;;;;3.30;0.73;;;;;;;13.47;88.25;100499.78;4989419;28;20057;-48
2023/08/27 06:45:41;;;;;;;2.60;0.70;;;;;;;13.49;88.49;100512.13;4993475;28;20050;-46
2023/08/27 06:48:09;;;;;;;3.92;0.90;;;;;;;13.50;88.50;100505.41;4995750;28;20100;-48
2023/08/27 06:50:36;;;;;;;2.85;0.75;;;;;;;13.56;88.37;100514.22;4992106;28;20050;-43
2023/08/27 06:53:04;;;;;;;3.00;0.80;;;;;;;13.59;88.39;100508.72;4993671;28;20073;-46
2023/08/27 06:55:31;;;;;;;5.82;1.00;;;;;;;13.60;88.57;100510.34;4995075;28;20042;-45
2023/08/27 06:57:58;;;;;;;5.93;0.95;;;;;;;13.63;88.59;100509.59;4999266;28;21941;-45
2023/08/27 07:00:25;;;;;;;5.78;2.47;;;;;;;13.62;88.71;100508.00;4989778;28;20058;-47
2023/08/27 07:02:54;;;;;;;7.18;1.25;;;;;;;13.64;88.68;100510.38;4991234;28;20059;-44
2023/08/27 07:05:21;;;;;;;4.05;1.88;;;;;;;13.63;88.91;100503.25;4995570;28;20050;-44
2023/08/27 07:07:48;;;;;;;4.20;0.93;;;;;;;13.59;88.86;100508.72;4989397;28;20061;-44
2023/08/27 07:10:15;;;;;;;3.42;1.10;;;;;;;13.58;89.11;100512.66;4994222;28;20050;-45
2023/08/27 07:12:42;;;;;;;3.65;1.08;;;;;;;13.63;89.22;100509.59;4990578;28;20399;-45
2023/08/27 07:15:08;;;;;;;3.00;0.98;;;;;;;13.68;89.05;100505.69;4994039;28;20042;-46
2023/08/27 07:17:38;;;;;;;4.88;1.30;;;;;;;13.69;89.02;100512.84;4989441;28;20054;-43
2023/08/27 07:20:07;;;;;;;1.67;0.90;;;;;;;13.71;89.21;100516.91;4992509;28;20074;-49
2023/08/27 07:22:35;;;;;;;6.57;1.13;;;;;;;13.75;89.07;100506.63;4990970;28;20109;-44
2023/08/27 07:25:05;;;;;;;4.75;1.20;;;;;;;13.74;88.97;100505.00;4994961;28;20038;-49
2023/08/27 07:27:33;;;;;;;1.70;1.30;;;;;;;13.75;88.95;100505.81;4996471;28;20052;-45
2023/08/27 07:30:01;;;;;;;2.58;0.93;;;;;;;13.76;89.11;100501.88;4993880;28;20068;-45
2023/08/27 07:32:27;;;;;;;4.07;0.90;;;;;;;13.76;89.00;100501.88;4992248;28;20043;-43
2023/08/27 07:34:54;;;;;;;1.10;1.00;;;;;;;13.72;89.10;100499.00;4991920;28;20054;-44
2023/08/27 07:37:21;;;;;;;5.72;1.00;;;;;;;13.71;89.21;100499.41;4990863;28;20050;-45
2023/08/27 07:39:48;;;;;;;2.78;0.90;;;;;;;13.72;89.39;100512.94;4993683;28;20046;-44
2023/08/27 07:42:15;;;;;;;2.88;0.75;;;;;;;13.70;89.33;100501.38;4991090;28;20531;-51
2023/08/27 07:44:42;;;;;;;1.50;0.60;;;;;;;13.73;89.38;100497.03;4991611;28;20042;-45
2023/08/27 07:47:09;;;;;;;2.60;0.60;;;;;;;13.75;89.56;100491.91;4992231;28;20046;-46
2023/08/27 07:49:37;;;;;;;4.72;0.80;;;;;;;13.78;89.49;100486.41;4991666;28;20046;-46
2023/08/27 07:52:06;;;;;;;2.65;0.90;;;;;;;13.83;89.33;100488.88;4974777;28;20058;-44
2023/08/27 07:54:32;;;;;;;2.05;1.35;;;;;;;13.93;89.53;100491.00;4990571;28;20043;-46
2023/08/27 07:56:59;;;;;;;1.95;0.85;;;;;;;13.99;89.21;100495.09;4991024;28;20050;-44
2023/08/27 07:59:26;;;;;;;2.50;0.88;;;;;;;14.04;89.09;100497.53;4990922;28;20046;-44
2023/08/27 08:01:54;;;;;;;2.90;0.88;;;;;;;14.07;89.10;100487.66;4992812;28;20063;-44
2023/08/27 08:04:21;;;;;;;2.20;0.57;;;;;;;14.09;89.09;100506.75;4991342;28;20042;-47
2023/08/27 08:06:48;;;;;;;5.38;1.02;;;;;;;14.06;89.00;100511.09;4985360;28;20046;-44
2023/08/27 08:09:15;;;;;;;1.63;0.60;;;;;;;14.04;89.08;100507.88;4992353;28;20078;-45
2023/08/27 08:11:43;;;;;;;2.65;0.70;;;;;;;14.01;88.97;100508.63;4992556;28;20438;-45
2023/08/27 08:14:10;;;;;;;1.75;0.85;;;;;;;13.98;89.33;100510.16;4991172;28;20046;-45
2023/08/27 08:16:37;;;;;;;1.92;0.70;;;;;;;13.97;89.23;100513.34;4986412;28;20108;-49
2023/08/27 08:19:04;;;;;;;8.52;0.65;;;;;;;13.99;89.34;100517.34;4981314;28;20054;-45
2023/08/27 08:21:31;;;;;;;0.50;0.50;;;;;;;13.98;89.40;100510.16;4990389;28;20488;-45
2023/08/27 08:23:57;;;;;;;2.33;0.65;;;;;;;14.01;89.41;100514.19;4991622;28;20061;-46
2023/08/27 08:26:24;;;;;;;1.25;0.57;;;;;;;14.07;89.57;100520.25;4992314;28;20039;-47
2023/08/27 08:28:51;;;;;;;2.13;1.77;;;;;;;14.10;89.47;100500.00;4992652;28;20038;-44
2023/08/27 08:31:18;;;;;;;0.60;0.60;;;;;;;14.19;89.64;100501.34;4991387;28;20049;-44
2023/08/27 08:33:45;;;;;;;1.23;0.60;;;;;;;14.30;89.50;100507.06;4989102;28;20064;-44
2023/08/27 08:36:11;;;;;;;1.35;0.52;;;;;;;14.29;89.34;100513.81;4990306;28;20503;-43
2023/08/27 08:38:38;;;;;;;2.40;0.60;;;;;;;14.35;89.31;100507.56;4989853;28;20407;-44
2023/08/27 08:41:08;;;;;;;1.45;0.82;;;;;;;14.32;89.12;100504.75;4990177;28;20484;-46
2023/08/27 08:43:47;;;;;;;0.40;0.40;;;;;;;14.37;89.46;100510.00;4988407;28;20050;-45
2023/08/27 08:46:17;;;;;;;2.08;0.52;;;;;;;14.39;89.25;100513.19;4991645;28;20047;-44
2023/08/27 08:48:50;;;;;;;1.38;0.60;;;;;;;14.41;89.32;100516.41;4991960;28;20054;-46
2023/08/27 08:51:24;;;;;;;2.90;0.55;;;;;;;14.44;89.27;100522.03;4979820;28;20050;-43
2023/08/27 08:53:54;;;;;;;1.60;0.63;;;;;;;14.54;89.50;100515.81;4989377;28;20104;-44
2023/08/27 08:56:31;;;;;;;0.95;0.60;;;;;;;14.67;89.37;100521.94;4991051;28;20042;-44
2023/08/27 08:58:58;;;;;;;3.25;1.73;;;;;;;14.66;89.20;100520.34;4990474;28;20078;-43
2023/08/27 09:01:25;;;;;;;0.90;0.90;;;;;;;14.61;89.41;100520.69;4985786;28;20046;-46
2023/08/27 09:03:54;;;;;;;1.60;0.90;;;;;;;14.66;89.53;100519.53;4971976;28;20050;-44
2023/08/27 09:06:22;;;;;;;2.22;0.75;;;;;;;14.68;89.37;100526.34;4988249;28;20056;-50
2023/08/27 09:08:53;;;;;;;1.27;0.68;;;;;;;14.63;89.35;100512.75;4979084;28;20061;-43
2023/08/27 09:11:21;;;;;;;2.30;0.83;;;;;;;14.61;89.37;100523.47;4989584;28;20504;-44
2023/08/27 09:13:48;;;;;;;1.40;0.60;;;;;;;14.57;89.46;100522.59;4990889;28;20061;-44
2023/08/27 09:16:15;;;;;;;2.55;0.73;;;;;;;14.57;89.82;100519.81;4984706;28;20126;-46
2023/08/27 09:18:42;;;;;;;2.10;0.63;;;;;;;14.56;89.75;100529.38;4972547;28;20042;-47
2023/08/27 09:21:09;;;;;;;1.88;0.45;;;;;;;14.58;89.72;100527.81;4989463;28;20074;-44
2023/08/27 09:23:39;;;;;;;1.73;0.60;;;;;;;14.63;89.68;100526.69;4987819;28;20452;-46
2023/08/27 09:26:07;;;;;;;2.05;0.60;;;;;;;14.58;89.49;100532.56;4989686;28;20054;-43
2023/08/27 09:28:34;;;;;;;0.80;0.50;;;;;;;14.54;89.63;100521.38;4989017;28;20053;-44
2023/08/27 09:31:01;;;;;;;1.20;0.60;;;;;;;14.57;89.82;100525.38;4984616;28;20050;-42
2023/08/27 09:33:40;;;;;;;0.55;0.50;;;;;;;14.57;89.74;100525.38;4986863;28;20038;-43
2023/08/27 09:36:08;;;;;;;0.73;0.73;;;;;;;14.58;89.75;100524.22;4992575;28;20051;-42
2023/08/27 09:38:36;;;;;;;1.65;0.65;;;;;;;14.61;89.78;100523.47;4992074;28;20105;-42
2023/08/27 09:41:17;;;;;;;0.57;0.57;;;;;;;14.70;89.95;100523.16;4975127;28;21527;-43
2023/08/27 09:43:54;;;;;;;2.53;0.73;;;;;;;14.71;89.87;100524.78;4990856;28;20038;-42
2023/08/27 09:46:21;;;;;;;0.90;0.80;;;;;;;14.69;89.80;100519.59;4990308;28;20134;-43
2023/08/27 09:49:04;;;;;;;1.25;0.57;;;;;;;14.72;89.90;100521.59;4991238;28;20061;-43
2023/08/27 09:51:36;;;;;;;0.73;0.60;;;;;;;14.75;89.80;100514.47;4991646;28;20038;-43
2023/08/27 09:54:19;;;;;;;0.70;0.60;;;;;;;14.76;89.85;100514.09;4940740;28;20128;-51
2023/08/27 09:56:48;;;;;;;0.82;0.50;;;;;;;14.83;89.65;100511.41;4970825;28;20050;-44
2023/08/27 09:59:17;;;;;;;2.15;0.60;;;;;;;14.89;89.41;100518.25;4992139;28;20077;-43
2023/08/27 10:01:50;;;;;;;0.63;0.40;;;;;;;14.92;89.40;100517.50;4989535;28;20128;-43
2023/08/27 10:04:19;;;;;;;0.50;0.50;;;;;;;14.94;89.38;100512.34;4986818;28;20046;-50
2023/08/27 10:06:47;;;;;;;0.93;0.63;;;;;;;14.99;89.22;100514.78;4992560;28;20049;-44
2023/08/27 10:09:14;;;;;;;0.88;0.73;;;;;;;15.04;89.39;100516.41;4991800;28;20408;-43
2023/08/27 10:11:44;;;;;;;0.75;0.73;;;;;;;15.12;88.97;100512.53;4994172;28;20053;-44
2023/08/27 10:14:14;;;;;;;1.23;0.47;;;;;;;15.16;88.85;100508.63;4989033;28;20042;-45
2023/08/27 10:16:42;;;;;;;0.73;0.60;;;;;;;15.29;88.67;100505.56;4989679;28;20056;-43
2023/08/27 10:19:10;;;;;;;1.08;0.60;;;;;;;15.42;88.39;100509.66;4991059;28;20058;-45
2023/08/27 10:21:37;;;;;;;2.25;0.60;;;;;;;15.53;88.23;100510.59;4973562;28;20108;-46
2023/08/27 10:24:06;;;;;;;2.03;0.50;;;;;;;15.65;88.00;100510.31;4989467;28;20713;-45
2023/08/27 10:26:33;;;;;;;0.30;0.30;;;;;;;15.68;87.49;100509.53;4993628;28;20041;-47
2023/08/27 10:29:03;;;;;;;0.52;0.40;;;;;;;15.69;87.11;100508.38;4991769;28;20057;-45
2023/08/27 10:31:30;;;;;;;0.32;0.32;;;;;;;15.64;86.83;100511.53;4990693;28;20040;-44
2023/08/27 10:33:57;;;;;;;1.73;0.47;;;;;;;15.70;86.82;100504.41;4989158;28;20084;-46
2023/08/27 10:36:30;;;;;;;1.83;0.65;;;;;;;15.74;86.66;100510.81;4970627;28;20054;-45
2023/08/27 10:39:03;;;;;;;0.68;0.40;;;;;;;15.82;86.71;100512.47;4988780;28;20074;-46
2023/08/27 10:41:34;;;;;;;1.42;1.25;;;;;;;15.87;86.22;100514.91;4993115;28;20431;-45
2023/08/27 10:44:01;;;;;;;1.48;1.35;;;;;;;15.86;85.88;100518.88;4992713;28;20035;-49
2023/08/27 10:46:28;;;;;;;1.77;1.67;;;;;;;15.82;85.52;100518.06;4989463;28;20046;-44
2023/08/27 10:48:55;;;;;;;2.20;2.00;;;;;;;15.80;85.54;100515.66;4991304;28;20051;-44
2023/08/27 10:51:31;;;;;;;2.70;2.50;;;;;;;15.84;85.42;100510.09;4992557;28;20659;-45
2023/08/27 10:54:00;;;;;;;1.98;1.83;;;;;;;15.83;85.26;100503.69;4993036;28;20511;-44
2023/08/27 10:56:35;;;;;;;1.90;1.75;;;;;;;15.80;84.75;100506.47;4993156;28;20042;-45
2023/08/27 10:59:10;;;;;;;2.53;1.60;;;;;;;15.78;84.83;100506.03;4994055;28;20047;-46
2023/08/27 11:01:59;;;;;;;2.92;1.38;;;;;;;15.81;84.67;100503.28;4992931;28;20145;-45
2023/08/27 11:04:40;;;;;;;2.20;1.45;;;;;;;15.89;84.74;100506.94;4990022;28;20045;-46
2023/08/27 11:07:12;;;;;;;1.83;1.10;;;;;;;16.01;84.68;100501.06;4991945;28;20050;-46
2023/08/27 11:09:58;;;;;;;1.27;0.82;;;;;;;16.10;84.56;100500.69;4993856;28;20408;-46
2023/08/27 11:12:35;;;;;;;0.90;0.70;;;;;;;16.09;84.04;100499.13;4983571;28;20050;-47
2023/08/27 11:15:13;;;;;;;1.85;1.05;;;;;;;16.15;84.36;100489.97;5002855;28;20092;-46
2023/08/27 11:17:41;;;;;;;3.10;1.15;;;;;;;16.32;84.21;100497.69;4985896;28;20104;-47
2023/08/27 11:20:24;;;;;;;2.15;1.13;;;;;;;16.51;83.71;100509.75;4991907;28;20613;-45
2023/08/27 11:22:56;;;;;;;0.93;0.82;;;;;;;16.62;83.66;100488.28;4990958;28;20068;-45
2023/08/27 11:25:31;;;;;;;1.00;0.90;;;;;;;16.67;83.34;100499.91;4989479;28;20166;-45
2023/08/27 11:27:59;;;;;;;0.68;0.60;;;;;;;16.71;82.80;100492.31;4993049;28;20038;-46
2023/08/27 11:30:27;;;;;;;1.55;0.52;;;;;;;16.73;83.00;100494.72;4992312;28;20043;-46